This is the latest recevied weather packets stored in our database for station/object W0VI. If no packets are shown the sender has not sent any weather packets the latest 10 day(s).
| Time | Temp. | Humidity | Pressure | Rain* | Wind** | Luminosity | Snow |
|---|---|---|---|---|---|---|---|
| 1787609803 | 27.78° C | 59% | 1016.3 hPa | 0 mm | - | 250 W/m² | - |
| 1787609499 | 28.33° C | 59% | 1016.3 hPa | 0 mm | - | 273 W/m² | - |
| 1787609198 | 28.89° C | 57% | 1016.1 hPa | 0 mm | - | 127 W/m² | - |
| 1787608893 | 28.33° C | 57% | 1016.5 hPa | 0 mm | - | 302 W/m² | - |
| 1787608593 | 28.33° C | 57% | 1016.5 hPa | 0 mm | - | 336 W/m² | - |
| 1787608288 | 28.33° C | 59% | 1016.5 hPa | 0 mm | - | 140 W/m² | - |
| 1787607985 | 28.33° C | 59% | 1016.5 hPa | 0 mm | - | 350 W/m² | - |
| 1787607682 | 27.78° C | 61% | 1016.2 hPa | 0 mm | - | 371 W/m² | - |
| 1787607378 | 27.78° C | 62% | 1016.2 hPa | 0 mm | - | 363 W/m² | - |
| 1787607075 | 27.78° C | 61% | 1016 hPa | 0 mm | - | 386 W/m² | - |
| 1787606775 | 27.78° C | 60% | 1016.2 hPa | 0 mm | - | 383 W/m² | - |
| 1787606468 | 27.78° C | 62% | 1016.3 hPa | 0 mm | - | 406 W/m² | - |
| 1787606162 | 27.78° C | 64% | 1016.5 hPa | 0 mm | - | 410 W/m² | - |
| 1787605862 | 27.78° C | 61% | 1016.2 hPa | 0 mm | - | 407 W/m² | - |
| 1787605560 | 27.22° C | 62% | 1016.2 hPa | 0 mm | - | 442 W/m² | - |
| 1787605256 | 27.22° C | 62% | 1016.3 hPa | 0 mm | - | 132 W/m² | - |
| 1787604955 | 27.22° C | 61% | 1016.3 hPa | 0 mm | - | 267 W/m² | - |
| 1787604650 | 27.78° C | 58% | 1016.2 hPa | 0 mm | - | 158 W/m² | - |
| 1787604350 | 27.78° C | 59% | 1016.3 hPa | 0 mm | - | 471 W/m² | - |
| 1787604044 | 26.67° C | 62% | 1016.5 hPa | 0 mm | - | 491 W/m² | - |
| 1787603739 | 27.78° C | 59% | 1016.3 hPa | 0 mm | - | 461 W/m² | - |
| 1787603435 | 27.78° C | 58% | 1016.6 hPa | 0 mm | - | 462 W/m² | - |
| 1787603131 | 27.78° C | 58% | 1016.6 hPa | 0 mm | - | 465 W/m² | - |
| 1787602827 | 27.78° C | 57% | 1016.7 hPa | 0 mm | - | 478 W/m² | - |
| 1787602526 | 27.22° C | 59% | 1016.5 hPa | 0 mm | - | 468 W/m² | - |
* Rain latest hour (hover to see other rain measurements)
** Current wind speed in m/s (hover to see current wind gust speed)